Dublin, Ireland
Current Conditions -  °F | °C
As of 5:30 PM on Thursday 18 Dec 2014 (Local Time) from EIDW Reporting Station
Light Rain Light Rain  
Wind Chill: 50°   Ceiling: 3100
Heat Index: 50°   Visibility: 6mi
Dew Point: 48°   Wind: 25mph
Humidity: 94%   Direction: 260°W
Pressure: 29.59"   Gusts: NA
Location:  53.33°N, 6.25°W
Report Text: EIDW 181730Z 26022KT 9999 -RA SCT009 BKN031 BKN050 10/09 Q1002 NOSIG
Loading
Personal Weather Stations






























Interactive Weather Map New forecast layout! Learn more

10-Day Weather Forecast

Advertisements
Track Severe Weather on mobile